Time;durP1;ratioP1;P1;durP2;ratioP2;P2;SDS_P1;SDS_P2;PMS_P1;PMS_P2;Temp;Humidity;BMP_temperature;BMP_pressure;BME280_temperature;BME280_humidity;BME280_pressure;Samples;Min_cycle;Max_cycle;Signal;HPM_P1;HPM_P2
2022/12/17 13:06:14;;;;;;;33.67;25.23;;;-2.20;99.90;;;;;;5034509;28;20263;-77
2022/12/17 13:08:44;;;;;;;34.50;24.97;;;-2.20;99.90;;;;;;5015475;28;20672;-77
2022/12/17 13:11:36;;;;;;;33.10;24.87;;;-2.20;99.90;;;;;;5015970;28;20943;-77
2022/12/17 13:14:12;;;;;;;35.93;25.50;;;-2.20;99.90;;;;;;5015145;28;20451;-76
2022/12/17 13:16:51;;;;;;;34.43;24.73;;;-2.20;99.90;;;;;;5015731;28;20989;-73
2022/12/17 13:19:32;;;;;;;32.87;24.07;;;-2.30;99.90;;;;;;5015205;28;20213;-76
2022/12/17 13:22:27;;;;;;;35.67;25.70;;;-2.30;99.90;;;;;;5016461;28;20472;-76
2022/12/17 13:25:14;;;;;;;34.67;26.13;;;-2.30;99.90;;;;;;5018291;28;20465;-77
2022/12/17 13:27:44;;;;;;;39.30;26.37;;;-2.30;99.90;;;;;;5014260;28;20676;-78
2022/12/17 13:30:29;;;;;;;37.57;27.00;;;-2.30;99.90;;;;;;5014049;28;20468;-76
2022/12/17 13:33:22;;;;;;;36.23;25.80;;;-2.40;99.90;;;;;;5013941;28;20475;-77
2022/12/17 13:36:02;;;;;;;35.33;25.33;;;-2.40;99.90;;;;;;5013829;28;20432;-77
2022/12/17 13:38:39;;;;;;;37.20;26.93;;;-2.50;99.90;;;;;;5014068;28;20436;-76
2022/12/17 13:41:13;;;;;;;36.33;26.93;;;-2.50;99.90;;;;;;5013956;28;20491;-76
2022/12/17 13:43:45;;;;;;;35.63;25.77;;;-2.50;99.90;;;;;;5013867;28;20472;-76
2022/12/17 13:46:19;;;;;;;38.80;27.13;;;-2.60;99.90;;;;;;5015484;28;20437;-77
2022/12/17 13:48:53;;;;;;;36.63;26.83;;;-2.50;99.90;;;;;;5013644;28;20456;-78
2022/12/17 13:51:24;;;;;;;37.53;26.83;;;-2.50;99.90;;;;;;5013925;28;21018;-74
2022/12/17 13:53:53;;;;;;;34.83;27.00;;;-2.60;99.90;;;;;;5013532;28;20461;-73
2022/12/17 13:56:29;;;;;;;38.10;28.80;;;-2.60;99.90;;;;;;5013560;28;20451;-77
2022/12/17 13:59:01;;;;;;;39.87;29.47;;;-2.50;99.90;;;;;;5017254;28;20965;-74
2022/12/17 14:01:44;;;;;;;41.83;30.40;;;-2.50;99.90;;;;;;5034202;28;20922;-75
2022/12/17 14:04:21;;;;;;;47.83;31.47;;;-2.50;99.90;;;;;;5033312;28;20934;-80
2022/12/17 14:06:50;;;;;;;42.30;30.40;;;-2.60;99.90;;;;;;5033646;28;20529;-77
2022/12/17 14:09:22;;;;;;;41.87;31.90;;;-2.50;99.90;;;;;;5019972;28;20464;-78
2022/12/17 14:14:40;;;;;;;46.70;32.60;;;-2.60;99.90;;;;;;5013672;28;20461;-77
2022/12/17 14:17:17;;;;;;;46.87;33.83;;;-2.70;99.90;;;;;;5019355;28;20455;-77
2022/12/17 14:19:46;;;;;;;44.93;33.90;;;-2.90;99.90;;;;;;5032440;28;20427;-77
2022/12/17 14:22:20;;;;;;;46.03;32.93;;;-2.80;99.90;;;;;;5032522;28;20838;-77
2022/12/17 14:24:49;;;;;;;47.27;33.97;;;-3.00;99.90;;;;;;5028005;28;20559;-77
2022/12/17 14:27:26;;;;;;;50.43;35.67;;;-3.00;99.90;;;;;;5013079;28;20572;-78
2022/12/17 14:29:54;;;;;;;48.90;34.47;;;-3.00;99.90;;;;;;5013457;28;20902;-78
2022/12/17 14:32:26;;;;;;;49.50;35.97;;;-3.20;99.90;;;;;;5013138;28;20453;-76
2022/12/17 14:34:54;;;;;;;49.37;36.27;;;-3.20;99.90;;;;;;5013977;28;20968;-74
2022/12/17 14:37:28;;;;;;;50.73;36.50;;;-3.20;99.90;;;;;;5012977;28;20421;-77
2022/12/17 14:40:02;;;;;;;51.27;36.03;;;-3.30;99.90;;;;;;5012840;28;20450;-74
2022/12/17 14:42:36;;;;;;;53.10;36.97;;;-3.40;99.90;;;;;;5013225;28;20485;-74
2022/12/17 14:45:07;;;;;;;56.33;37.80;;;-3.50;99.90;;;;;;5013317;28;20866;-76
2022/12/17 14:47:40;;;;;;;53.93;38.07;;;-3.60;99.90;;;;;;5012857;28;20467;-76
2022/12/17 14:50:29;;;;;;;51.10;36.50;;;-3.70;99.90;;;;;;5013138;28;20527;-77
2022/12/17 14:52:59;;;;;;;53.37;37.20;;;-3.70;99.90;;;;;;5013160;28;20465;-78
2022/12/17 14:55:33;;;;;;;50.97;37.87;;;-3.80;99.90;;;;;;5013392;28;20453;-72
2022/12/17 14:58:21;;;;;;;57.27;38.77;;;-4.00;99.90;;;;;;5013615;28;20502;-74
2022/12/17 15:00:55;;;;;;;56.80;38.03;;;-4.10;99.90;;;;;;5027311;28;20439;-76
2022/12/17 15:03:29;;;;;;;52.57;37.97;;;-4.20;99.90;;;;;;5032621;28;20479;-77
2022/12/17 15:06:02;;;;;;;58.80;40.33;;;-4.30;99.90;;;;;;5033502;28;20531;-76
2022/12/17 15:08:37;;;;;;;55.50;40.00;;;-4.40;99.90;;;;;;5032169;28;20548;-77
2022/12/17 15:11:06;;;;;;;57.40;40.43;;;-4.50;99.90;;;;;;5032638;28;20431;-74
2022/12/17 15:13:36;;;;;;;60.40;40.63;;;-4.50;99.90;;;;;;5032425;28;20447;-73
2022/12/17 15:16:04;;;;;;;59.00;40.30;;;-4.60;99.90;;;;;;5032318;28;20462;-75
2022/12/17 15:18:33;;;;;;;58.10;39.83;;;-4.70;99.90;;;;;;5033081;28;20557;-77
2022/12/17 15:21:02;;;;;;;63.40;42.03;;;-4.80;99.90;;;;;;5033056;28;20451;-74
2022/12/17 15:23:33;;;;;;;62.10;42.93;;;-4.80;99.90;;;;;;5029525;28;20487;-75
2022/12/17 15:26:02;;;;;;;61.20;41.83;;;-4.90;99.90;;;;;;5013206;28;20459;-75
2022/12/17 15:28:30;;;;;;;64.67;43.60;;;-5.00;99.90;;;;;;5013187;28;20479;-77
2022/12/17 15:31:00;;;;;;;66.90;43.87;;;-5.10;99.90;;;;;;5016821;28;20475;-76
2022/12/17 15:33:28;;;;;;;66.07;42.53;;;-5.10;99.90;;;;;;5031795;28;20550;-75
2022/12/17 15:35:58;;;;;;;66.97;43.47;;;-5.20;99.90;;;;;;5036871;28;20460;-77
2022/12/17 15:38:29;;;;;;;70.30;42.90;;;-5.20;99.90;;;;;;5036684;28;20562;-74
2022/12/17 15:41:00;;;;;;;72.67;46.27;;;-5.30;99.90;;;;;;5035838;28;20916;-76
2022/12/17 15:43:27;;;;;;;72.33;45.03;;;-5.40;99.90;;;;;;5036114;28;20503;-72
2022/12/17 15:46:02;;;;;;;65.23;42.17;;;-5.50;99.90;;;;;;5036488;28;20444;-76
2022/12/17 15:48:32;;;;;;;67.07;43.00;;;-5.50;99.90;;;;;;5027834;28;20573;-74
2022/12/17 15:51:00;;;;;;;69.13;43.47;;;-5.60;99.90;;;;;;5016820;28;20466;-75
2022/12/17 15:53:29;;;;;;;68.93;44.87;;;-5.60;99.90;;;;;;5016180;28;20539;-74
2022/12/17 15:56:00;;;;;;;74.73;47.00;;;-5.70;99.90;;;;;;5017048;28;20454;-76
2022/12/17 15:58:28;;;;;;;78.40;48.37;;;-5.70;99.90;;;;;;5035355;28;20463;-73
2022/12/17 16:01:05;;;;;;;73.33;46.50;;;-5.70;99.90;;;;;;5036190;28;20461;-74
2022/12/17 16:03:37;;;;;;;73.33;47.60;;;-5.70;99.90;;;;;;5035778;28;20468;-76
2022/12/17 16:06:07;;;;;;;79.60;48.57;;;-5.70;99.90;;;;;;5018367;28;20555;-77
2022/12/17 16:08:39;;;;;;;74.33;47.23;;;-5.70;99.90;;;;;;5016341;28;20454;-79
2022/12/17 16:11:15;;;;;;;74.10;48.13;;;-5.80;99.90;;;;;;5016335;28;20802;-76
2022/12/17 16:13:43;;;;;;;75.00;46.27;;;-5.80;99.90;;;;;;5015783;28;20491;-73
2022/12/17 16:16:15;;;;;;;70.27;45.90;;;-5.80;99.90;;;;;;5016112;28;21018;-74
2022/12/17 16:18:43;;;;;;;76.17;47.87;;;-5.90;99.90;;;;;;5015923;28;20844;-77
2022/12/17 16:21:12;;;;;;;80.70;50.57;;;-6.00;99.90;;;;;;5026742;28;20966;-77
2022/12/17 16:23:40;;;;;;;77.13;47.87;;;-6.00;99.90;;;;;;5034894;28;20581;-76
2022/12/17 16:26:11;;;;;;;80.83;47.70;;;-6.00;99.90;;;;;;5034482;28;20455;-76
2022/12/17 16:28:39;;;;;;;76.83;47.63;;;-6.10;99.90;;;;;;5015590;28;20431;-76
2022/12/17 16:31:10;;;;;;;74.27;45.97;;;-6.10;99.90;;;;;;5031441;28;20587;-78
2022/12/17 16:33:42;;;;;;;78.17;47.17;;;-5.90;99.90;;;;;;5034827;28;20490;-75
2022/12/17 16:36:14;;;;;;;77.90;46.57;;;-6.20;99.90;;;;;;5035261;28;20907;-75
2022/12/17 16:38:47;;;;;;;71.73;45.33;;;-6.40;99.90;;;;;;5039458;28;20427;-77
2022/12/17 16:41:16;;;;;;;67.87;43.13;;;-6.40;99.90;;;;;;5030436;28;20498;-74
2022/12/17 16:43:46;;;;;;;65.47;41.87;;;-6.50;99.90;;;;;;5017490;28;20475;-79
2022/12/17 16:46:26;;;;;;;67.83;42.93;;;-6.50;99.90;;;;;;5015670;28;20484;-79
2022/12/17 16:48:57;;;;;;;68.60;42.33;;;-6.60;99.90;;;;;;5015179;28;20468;-78
2022/12/17 16:51:27;;;;;;;72.93;45.07;;;-6.60;99.90;;;;;;5015856;28;20468;-77
2022/12/17 16:53:57;;;;;;;77.00;46.63;;;-6.60;99.90;;;;;;5018050;28;20450;-74
2022/12/17 16:56:27;;;;;;;79.47;48.27;;;-6.70;99.90;;;;;;5020626;28;20498;-73
2022/12/17 16:58:55;;;;;;;73.33;46.13;;;-6.70;99.90;;;;;;5035333;28;20971;-76
2022/12/17 17:01:26;;;;;;;81.97;49.87;;;-6.70;99.90;;;;;;5034618;28;20801;-77
2022/12/17 17:03:57;;;;;;;90.73;51.33;;;-6.70;99.90;;;;;;5034367;28;20479;-76
2022/12/17 17:06:28;;;;;;;86.17;50.70;;;-6.80;99.90;;;;;;5024116;28;20534;-75
2022/12/17 17:09:03;;;;;;;82.37;50.53;;;-6.80;99.90;;;;;;5015000;28;20498;-79
2022/12/17 17:11:31;;;;;;;86.47;50.07;;;-6.80;99.90;;;;;;5021678;28;21035;-79
2022/12/17 17:14:00;;;;;;;97.57;54.37;;;-6.90;99.90;;;;;;5014501;28;20921;-78
2022/12/17 17:16:29;;;;;;;99.10;56.00;;;-6.90;99.90;;;;;;5014726;28;20468;-79
2022/12/17 17:18:58;;;;;;;98.60;58.00;;;-6.90;99.90;;;;;;5014754;28;20460;-78
2022/12/17 17:21:29;;;;;;;91.40;52.03;;;-6.90;99.90;;;;;;5014664;28;20821;-74
2022/12/17 17:24:00;;;;;;;91.83;53.43;;;-7.00;99.90;;;;;;5014550;28;20486;-75
2022/12/17 17:26:32;;;;;;;90.17;52.77;;;-7.00;99.90;;;;;;5026231;28;20479;-75
2022/12/17 17:29:01;;;;;;;94.83;53.60;;;-7.10;99.90;;;;;;5035367;28;20457;-80
2022/12/17 17:31:29;;;;;;;91.40;54.13;;;-7.10;99.90;;;;;;5034878;28;20485;-78
2022/12/17 17:34:18;;;;;;;97.70;54.53;;;-7.20;99.90;;;;;;5034360;28;20960;-77
2022/12/17 17:36:50;;;;;;;95.20;53.83;;;-7.20;99.90;;;;;;5032932;28;20946;-80
2022/12/17 17:39:18;;;;;;;95.70;53.57;;;-7.30;99.90;;;;;;5033948;28;20453;-79
2022/12/17 17:41:46;;;;;;;90.27;52.37;;;-7.30;99.90;;;;;;5033138;28;20679;-78
2022/12/17 17:44:14;;;;;;;93.60;53.77;;;-7.40;99.90;;;;;;5033441;28;20709;-79
2022/12/17 17:46:42;;;;;;;92.83;53.10;;;-7.40;99.90;;;;;;5033440;28;20465;-77
2022/12/17 17:49:11;;;;;;;89.33;51.17;;;-7.40;99.90;;;;;;5033373;28;20549;-77
2022/12/17 17:51:43;;;;;;;90.10;50.90;;;-7.50;99.90;;;;;;5023102;28;20472;-75
2022/12/17 17:54:31;;;;;;;82.27;47.80;;;-7.60;99.90;;;;;;5014737;28;20450;-79
2022/12/17 17:57:00;;;;;;;79.57;46.40;;;-7.60;99.90;;;;;;5030374;28;20456;-78
2022/12/17 17:59:31;;;;;;;99.00;54.83;;;-7.70;99.90;;;;;;5026828;28;20493;-79
2022/12/17 18:02:01;;;;;;;95.93;53.70;;;-7.80;99.90;;;;;;5019720;28;20452;-78
2022/12/17 18:04:31;;;;;;;115.43;59.30;;;-7.80;99.90;;;;;;5014741;28;20487;-79
2022/12/17 18:07:00;;;;;;;87.63;50.47;;;-7.80;99.90;;;;;;5013320;28;20529;-78
2022/12/17 18:09:49;;;;;;;92.03;47.83;;;-7.90;99.90;;;;;;5013475;28;21032;-78
2022/12/17 18:15:04;;;;;;;124.27;59.43;;;-7.90;99.90;;;;;;5013628;28;20420;-77
2022/12/17 18:17:42;;;;;;;170.67;89.87;;;-8.00;99.90;;;;;;5012989;28;20462;-76
2022/12/17 18:20:11;;;;;;;140.73;46.20;;;-8.10;99.90;;;;;;5013431;28;20453;-77
2022/12/17 18:22:41;;;;;;;107.73;47.40;;;-8.10;99.90;;;;;;5012948;28;20448;-77
2022/12/17 18:25:09;;;;;;;116.67;46.27;;;-8.10;99.90;;;;;;5013052;28;20485;-78
2022/12/17 18:27:37;;;;;;;164.03;48.33;;;-8.00;99.90;;;;;;5012898;28;20528;-79
2022/12/17 18:30:06;;;;;;;255.57;48.03;;;-8.00;99.90;;;;;;5012745;28;20841;-76
2022/12/17 18:32:34;;;;;;;305.80;46.33;;;-8.00;99.90;;;;;;5012673;28;20465;-77
2022/12/17 18:35:02;;;;;;;274.23;50.83;;;-7.90;99.90;;;;;;5013150;28;20944;-80
2022/12/17 18:37:31;;;;;;;242.33;49.77;;;-7.80;99.90;;;;;;5013226;28;20460;-77
2022/12/17 18:40:00;;;;;;;219.63;50.27;;;-7.80;99.90;;;;;;5012916;28;20824;-80
2022/12/17 18:45:14;;;;;;;164.17;50.40;;;-7.60;99.90;;;;;;5027549;28;20599;-80
2022/12/17 18:47:43;;;;;;;431.73;54.30;;;-7.70;99.90;;;;;;5032263;28;20486;-77
2022/12/17 18:50:12;;;;;;;380.47;54.73;;;-7.70;99.90;;;;;;5033004;28;20461;-78
2022/12/17 18:52:40;;;;;;;517.60;62.43;;;-7.70;99.90;;;;;;5031980;28;20969;-75
2022/12/17 18:55:12;;;;;;;206.07;50.97;;;-7.60;99.90;;;;;;5031818;28;20810;-79
2022/12/17 18:57:41;;;;;;;472.73;60.73;;;-7.60;99.90;;;;;;5032067;28;20457;-78
2022/12/17 19:00:10;;;;;;;483.17;62.50;;;-7.60;99.90;;;;;;5032251;28;20455;-77
2022/12/17 19:02:38;;;;;;;465.13;59.33;;;-7.60;99.90;;;;;;5030025;28;20477;-79
2022/12/17 19:05:07;;;;;;;168.87;55.70;;;-7.50;99.90;;;;;;5030986;28;20501;-76
2022/12/17 19:07:36;;;;;;;301.47;59.37;;;-7.50;99.90;;;;;;5032287;28;20477;-78
2022/12/17 19:10:06;;;;;;;448.33;62.33;;;-7.40;99.90;;;;;;5025968;28;20472;-77
2022/12/17 19:12:35;;;;;;;403.63;60.00;;;-7.50;99.90;;;;;;5011479;28;20454;-77
2022/12/17 19:15:04;;;;;;;320.40;56.87;;;-7.50;99.90;;;;;;5012095;28;20514;-74
2022/12/17 19:17:32;;;;;;;302.17;54.57;;;-7.50;99.90;;;;;;5011974;28;20464;-78
2022/12/17 19:20:00;;;;;;;170.53;49.70;;;-7.50;99.90;;;;;;5012088;28;20474;-77
2022/12/17 19:22:29;;;;;;;194.67;49.50;;;-7.50;99.90;;;;;;5011778;28;20446;-76
2022/12/17 19:24:57;;;;;;;251.57;50.03;;;-7.60;99.90;;;;;;5012158;28;20512;-77
2022/12/17 19:27:25;;;;;;;291.07;51.13;;;-7.60;99.90;;;;;;5011954;28;20460;-77
2022/12/17 19:29:55;;;;;;;197.70;49.63;;;-7.70;99.90;;;;;;5011980;28;20547;-76
2022/12/17 19:32:24;;;;;;;145.93;47.20;;;-7.80;99.90;;;;;;5011242;28;20608;-75
2022/12/17 19:34:56;;;;;;;133.73;48.33;;;-7.80;99.90;;;;;;5012106;28;20448;-78
2022/12/17 19:37:24;;;;;;;159.63;47.10;;;-7.90;99.90;;;;;;5012198;28;20465;-75
2022/12/17 19:39:52;;;;;;;119.17;45.37;;;-7.90;99.90;;;;;;5012232;28;20494;-76
2022/12/17 19:42:26;;;;;;;148.83;46.97;;;-8.00;99.90;;;;;;5011653;28;20832;-74
2022/12/17 19:45:06;;;;;;;236.00;48.87;;;-8.00;99.90;;;;;;5011536;28;20470;-73
2022/12/17 19:47:35;;;;;;;253.53;50.63;;;-8.00;99.90;;;;;;5012057;28;20502;-76
2022/12/17 19:50:06;;;;;;;118.70;49.03;;;-8.00;99.90;;;;;;5011620;28;20446;-75
2022/12/17 19:52:38;;;;;;;95.23;48.43;;;-8.00;99.90;;;;;;5015030;28;20817;-76
2022/12/17 19:55:06;;;;;;;94.87;50.03;;;-7.90;99.90;;;;;;5030778;28;20980;-76
2022/12/17 19:57:34;;;;;;;99.00;48.87;;;-7.90;99.90;;;;;;5031516;28;20516;-76
2022/12/17 20:00:03;;;;;;;103.27;50.20;;;-7.90;99.90;;;;;;5031421;28;20493;-76
2022/12/17 20:02:33;;;;;;;106.00;52.17;;;-7.90;99.90;;;;;;5031399;28;20457;-76
2022/12/17 20:05:03;;;;;;;98.90;53.30;;;-7.90;99.90;;;;;;5021526;28;20491;-74
2022/12/17 20:07:31;;;;;;;104.47;51.10;;;-7.80;99.90;;;;;;5011694;28;20458;-77
2022/12/17 20:09:59;;;;;;;115.13;52.33;;;-7.80;99.90;;;;;;5011643;28;20463;-76
2022/12/17 20:12:30;;;;;;;103.87;51.57;;;-7.80;99.90;;;;;;5011401;28;20874;-77
2022/12/17 20:14:58;;;;;;;113.37;54.33;;;-7.80;99.90;;;;;;5025301;28;20462;-77
2022/12/17 20:17:26;;;;;;;117.23;54.90;;;-7.80;99.90;;;;;;5034180;28;20455;-74
2022/12/17 20:19:55;;;;;;;135.10;56.10;;;-7.50;99.90;;;;;;5035031;28;20450;-77
2022/12/17 20:22:26;;;;;;;125.03;56.80;;;-7.90;99.90;;;;;;5028076;28;20490;-76
2022/12/17 20:24:54;;;;;;;124.50;59.43;;;-7.80;99.90;;;;;;5018062;28;20487;-76
2022/12/17 20:27:22;;;;;;;125.53;57.30;;;-7.90;99.90;;;;;;5016245;28;20457;-77
2022/12/17 20:29:51;;;;;;;116.60;54.40;;;-7.90;99.90;;;;;;5014896;28;20546;-78
2022/12/17 20:32:20;;;;;;;133.93;54.13;;;-7.90;99.90;;;;;;5032706;28;20470;-77
2022/12/17 20:34:48;;;;;;;126.43;54.80;;;-7.80;99.90;;;;;;5034207;28;20972;-77
2022/12/17 20:37:22;;;;;;;137.40;58.60;;;-7.80;99.90;;;;;;5034969;28;20541;-74
2022/12/17 20:39:50;;;;;;;161.00;54.73;;;-7.70;99.90;;;;;;5017150;28;20473;-75
2022/12/17 20:42:18;;;;;;;154.70;55.03;;;-7.70;99.90;;;;;;5014501;28;20529;-75
2022/12/17 20:44:46;;;;;;;133.77;56.57;;;-7.60;99.90;;;;;;5014680;28;20487;-76
2022/12/17 20:47:20;;;;;;;170.03;57.27;;;-7.50;99.90;;;;;;5014751;28;20970;-76
2022/12/17 20:49:48;;;;;;;133.37;55.03;;;-7.50;99.90;;;;;;5014173;28;20570;-76
2022/12/17 20:52:18;;;;;;;147.70;54.67;;;-7.10;99.90;;;;;;5026216;28;20938;-77
2022/12/17 20:54:46;;;;;;;187.90;56.73;;;-7.30;99.90;;;;;;5034099;28;20449;-76
2022/12/17 20:57:14;;;;;;;178.07;58.30;;;-7.20;99.90;;;;;;5024724;28;20993;-77
2022/12/17 20:59:42;;;;;;;167.27;57.07;;;-7.10;99.90;;;;;;5014504;28;20487;-77
2022/12/17 21:02:13;;;;;;;192.40;59.37;;;-7.10;99.90;;;;;;5014344;28;20470;-76
2022/12/17 21:04:41;;;;;;;161.83;60.07;;;-7.00;99.90;;;;;;5014263;28;20546;-78
2022/12/17 21:07:09;;;;;;;156.60;60.27;;;-7.00;99.90;;;;;;5014371;28;20831;-76
2022/12/17 21:09:39;;;;;;;151.47;59.97;;;-7.00;99.90;;;;;;5014002;28;20544;-77
2022/12/17 21:12:08;;;;;;;170.70;61.10;;;-6.90;99.90;;;;;;5013792;28;20940;-77
2022/12/17 21:14:37;;;;;;;157.63;60.20;;;-6.90;99.90;;;;;;5013991;28;20558;-77
2022/12/17 21:17:05;;;;;;;163.20;61.53;;;-6.80;99.90;;;;;;5015457;28;20559;-77
2022/12/17 21:19:33;;;;;;;157.73;62.90;;;-6.80;99.90;;;;;;5025967;28;20462;-77
2022/12/17 21:22:01;;;;;;;212.57;61.20;;;-6.70;99.90;;;;;;5016983;28;20473;-77
2022/12/17 21:24:29;;;;;;;168.43;62.23;;;-6.70;99.90;;;;;;5017259;28;20466;-75
2022/12/17 21:27:04;;;;;;;182.80;62.77;;;-6.70;99.90;;;;;;5013610;28;20454;-75
2022/12/17 21:29:41;;;;;;;160.37;61.00;;;-6.60;99.90;;;;;;5014180;28;20435;-75
2022/12/17 21:32:09;;;;;;;185.50;65.00;;;-6.70;99.90;;;;;;5016806;28;20823;-72
2022/12/17 21:34:37;;;;;;;181.07;61.97;;;-6.70;99.90;;;;;;5014564;28;20827;-75
2022/12/17 21:37:06;;;;;;;188.70;61.57;;;-6.70;99.90;;;;;;5014637;28;20449;-76
2022/12/17 21:39:36;;;;;;;286.67;65.37;;;-6.70;99.90;;;;;;5014134;28;20497;-74
2022/12/17 21:44:51;;;;;;;179.80;61.47;;;-6.70;99.90;;;;;;5013617;28;20439;-81
2022/12/17 21:47:20;;;;;;;229.67;62.47;;;-6.70;99.90;;;;;;5013558;28;20867;-76
2022/12/17 21:49:48;;;;;;;162.03;61.60;;;-6.70;99.90;;;;;;5017144;28;20451;-76
2022/12/17 21:52:16;;;;;;;220.73;59.90;;;-6.60;99.90;;;;;;5018469;28;20465;-78
2022/12/17 21:54:44;;;;;;;161.27;60.13;;;-6.60;99.90;;;;;;5013165;28;20453;-75
2022/12/17 21:57:14;;;;;;;173.27;57.00;;;-6.50;99.90;;;;;;5013075;28;20450;-77
2022/12/17 21:59:43;;;;;;;153.53;55.67;;;-6.60;99.90;;;;;;5013584;28;20477;-77
2022/12/17 22:02:14;;;;;;;151.23;53.93;;;-6.50;99.90;;;;;;5012971;28;20549;-78
2022/12/17 22:04:42;;;;;;;167.43;57.13;;;-6.50;99.90;;;;;;5012824;28;20439;-76
2022/12/17 22:07:11;;;;;;;173.50;57.23;;;-6.50;99.90;;;;;;5013129;28;20503;-77
2022/12/17 22:09:57;;;;;;;163.53;53.83;;;-6.50;99.90;;;;;;5012967;28;20472;-76
2022/12/17 22:15:34;;;;;;;154.13;54.07;;;-6.50;99.90;;;;;;5013095;28;20509;-76
2022/12/17 22:18:09;;;;;;;156.50;54.33;;;-6.60;99.90;;;;;;5013284;28;20467;-78
2022/12/17 22:20:38;;;;;;;138.03;52.40;;;-6.50;99.90;;;;;;5019337;28;20942;-77
2022/12/17 22:23:06;;;;;;;161.43;55.77;;;-6.50;99.90;;;;;;5013355;28;20815;-75
2022/12/17 22:25:37;;;;;;;163.27;54.27;;;-6.40;99.90;;;;;;5019102;28;20501;-77
2022/12/17 22:28:06;;;;;;;157.60;54.17;;;-6.40;99.90;;;;;;5032580;28;20446;-76
2022/12/17 22:33:24;;;;;;;145.27;51.13;;;-6.40;99.90;;;;;;5031259;28;20558;-77
2022/12/17 22:36:12;;;;;;;125.23;49.60;;;-6.30;99.90;;;;;;5032178;28;20452;-77
2022/12/17 22:39:00;;;;;;;147.70;49.27;;;-6.30;99.90;;;;;;5031271;28;20935;-77
2022/12/17 22:44:59;;;;;;;129.97;47.97;;;-6.40;99.90;;;;;;5014959;28;20465;-75
2022/12/17 22:47:36;;;;;;;110.70;44.53;;;-6.40;99.90;;;;;;5012652;28;20487;-77
2022/12/17 22:50:05;;;;;;;135.50;45.80;;;-6.30;99.90;;;;;;5029966;28;20453;-77
2022/12/17 22:52:33;;;;;;;176.50;47.03;;;-6.30;99.90;;;;;;5024274;28;21010;-79
2022/12/17 22:55:02;;;;;;;201.73;47.90;;;-6.40;99.90;;;;;;5012139;28;20452;-76
2022/12/17 22:57:30;;;;;;;157.27;45.90;;;-6.40;99.90;;;;;;5012032;28;20820;-77
2022/12/17 23:00:09;;;;;;;142.17;47.63;;;-6.20;99.90;;;;;;5012358;28;20479;-77
2022/12/17 23:02:39;;;;;;;150.23;45.83;;;-6.50;99.90;;;;;;5010599;28;20467;-77
2022/12/17 23:05:08;;;;;;;121.23;45.30;;;-6.40;99.90;;;;;;5012135;28;20450;-77
2022/12/17 23:07:36;;;;;;;139.03;46.43;;;-6.40;99.90;;;;;;5012694;28;20999;-77
2022/12/17 23:10:05;;;;;;;135.43;46.33;;;-6.40;99.90;;;;;;5012605;28;20475;-79
2022/12/17 23:12:52;;;;;;;126.10;46.00;;;-6.40;99.90;;;;;;5011876;28;20463;-81
2022/12/17 23:15:30;;;;;;;137.77;43.47;;;-6.40;99.90;;;;;;5012756;28;20458;-75
2022/12/17 23:18:00;;;;;;;210.80;47.43;;;-6.30;99.90;;;;;;5012395;28;20469;-78
2022/12/17 23:20:30;;;;;;;143.23;45.73;;;-6.30;99.90;;;;;;5012500;28;20474;-75
2022/12/17 23:22:58;;;;;;;124.17;45.20;;;-6.30;99.90;;;;;;5012049;28;20431;-77
2022/12/17 23:25:28;;;;;;;107.83;43.60;;;-6.20;99.90;;;;;;5012085;28;20788;-78
2022/12/17 23:27:57;;;;;;;112.03;44.40;;;-6.20;99.90;;;;;;5012011;28;20577;-78
2022/12/17 23:30:25;;;;;;;115.63;45.80;;;-6.20;99.90;;;;;;5011614;28;21037;-77
2022/12/17 23:32:57;;;;;;;121.57;44.27;;;-6.10;99.90;;;;;;5011652;28;20518;-77
2022/12/17 23:35:25;;;;;;;175.50;46.50;;;-6.10;99.90;;;;;;5012005;28;20536;-79
2022/12/17 23:37:55;;;;;;;164.20;45.80;;;-6.20;99.90;;;;;;5012072;28;20453;-76
2022/12/17 23:40:24;;;;;;;172.53;43.17;;;-6.20;99.90;;;;;;5011920;28;20476;-77
2022/12/17 23:42:52;;;;;;;132.17;44.60;;;-6.20;99.90;;;;;;5011768;28;20454;-77
2022/12/17 23:45:20;;;;;;;132.53;44.90;;;-6.20;99.90;;;;;;5011899;28;20447;-78
2022/12/17 23:47:48;;;;;;;119.23;43.10;;;-6.20;99.90;;;;;;5021556;28;20497;-75
2022/12/17 23:50:18;;;;;;;182.07;45.27;;;-6.20;99.90;;;;;;5032667;28;20464;-77
2022/12/17 23:52:46;;;;;;;133.90;44.67;;;-6.20;99.90;;;;;;5034755;28;20951;-76
2022/12/17 23:55:14;;;;;;;131.23;44.47;;;-6.10;99.90;;;;;;5035316;28;20452;-76
2022/12/17 23:57:42;;;;;;;132.17;45.40;;;-6.00;99.90;;;;;;5023823;28;20983;-77
